»·PEaware :: SWA1207 KSAN-KSFO

SWA1207 :: KSAN-KSFO

FLIGHT INFORMATION

Flight Status: Arrived
Operator:
Southwest Airlines
More flights by this operator :: More flights under this callsign
Pilot: Paul A. (20189)
Aircraft: BOEING 737-700
(B737)
More flights by this aircraft type
Origin: KSAN San Diego Intl-Lindbergh
United States
Destination: KSFO San Francisco Intl
United States
More flights between these airports :: More routes between these airports
Route: PADRZ2 IKAYE RIZIN SPLNT STOKD SERFR SERFR3
File this flight plan on PilotEdge
Remarks:
Altitude:
(Current/Filed)
32,000ft
Speed:
(Current/Filed)
455kts
Departed: 26-Nov-18 11:26 AM
Arrived: 26-Nov-18 12:31 PM
Distance/Time
Traveled:
388nm/1:04
Distance/Time
To Go:
Arrived

Flight Plot

Page will automatically refresh every two minutes.

Flight plan parsing failed; only flown route is shown


Map Options




Map Legend


Flown Route
Filed Route
Departure Airport
Arrival Airport
Navaid (VOR, NDB)
Fix

Horizontal Profiles

Position Reports

Time Latitude Longitude Heading Altitude Ground
Speed
26-Nov-18 11:10 32.732181 -117.195781 312 22ft 0kts
26-Nov-18 11:11 32.732181 -117.195781 312 22ft 0kts
26-Nov-18 11:12 32.732181 -117.195781 312 22ft 0kts
26-Nov-18 11:13 32.732181 -117.195781 312 23ft 0kts
26-Nov-18 11:14 32.732181 -117.195781 312 23ft 0kts
26-Nov-18 11:15 32.732181 -117.195781 312 23ft 0kts
26-Nov-18 11:16 32.732181 -117.195781 312 23ft 0kts
26-Nov-18 11:17 32.732181 -117.195781 312 23ft 0kts
26-Nov-18 11:18 32.732181 -117.195781 312 23ft 0kts
26-Nov-18 11:19 32.732181 -117.195781 312 23ft 0kts
26-Nov-18 11:20 32.731971 -117.195506 312 23ft 2kts
26-Nov-18 11:21 32.731562 -117.194971 312 23ft 0kts
26-Nov-18 11:22 32.731562 -117.194971 312 23ft 0kts
26-Nov-18 11:23 32.731562 -117.194971 312 23ft 0kts
26-Nov-18 11:24 32.731562 -117.194971 312 23ft 0kts
26-Nov-18 11:25 32.732986 -117.191607 105 23ft 20kts
26-Nov-18 11:26 32.731647 -117.186049 105 23ft 20kts
26-Nov-18 11:27 32.730088 -117.179644 106 23ft 15kts
26-Nov-18 11:28 32.730128 -117.176018 325 23ft 9kts
26-Nov-18 11:29 32.738277 -117.207637 291 1139ft 161kts
26-Nov-18 11:30 32.764192 -117.255408 303 3824ft 210kts
26-Nov-18 11:31 32.802830 -117.323950 308 6938ft 273kts
26-Nov-18 11:32 32.850999 -117.398126 309 10903ft 293kts
26-Nov-18 11:33 32.906594 -117.484368 309 13352ft 355kts
26-Nov-18 11:34 32.967854 -117.579660 311 17173ft 369kts
26-Nov-18 11:35 33.031684 -117.679432 312 20561ft 387kts
26-Nov-18 11:36 33.106660 -117.773622 325 23116ft 397kts
26-Nov-18 11:37 33.191716 -117.859727 324 25728ft 408kts
26-Nov-18 11:38 33.274655 -117.957100 320 27921ft 423kts
26-Nov-18 11:39 33.358634 -118.058448 320 29818ft 433kts
26-Nov-18 11:40 33.442274 -118.159147 321 32099ft 425kts
26-Nov-18 11:41 33.525686 -118.259075 321 32220ft 421kts
26-Nov-18 11:42 33.604721 -118.354247 321 32215ft 421kts
26-Nov-18 11:43 33.684617 -118.450791 321 32208ft 421kts
26-Nov-18 11:44 33.764192 -118.547237 321 32207ft 422kts
26-Nov-18 11:45 33.846640 -118.647462 321 32200ft 423kts
26-Nov-18 11:46 33.929324 -118.748139 321 32200ft 422kts
26-Nov-18 11:47 34.011944 -118.849063 320 32201ft 423kts
26-Nov-18 11:48 34.089240 -118.944020 319 32200ft 424kts
26-Nov-18 11:49 34.163671 -119.049938 308 32200ft 432kts
26-Nov-18 11:50 34.227192 -119.173458 307 32193ft 433kts
26-Nov-18 11:51 34.291180 -119.297534 307 32195ft 433kts
26-Nov-18 11:52 34.354592 -119.421532 307 32205ft 433kts
26-Nov-18 11:53 34.419296 -119.540514 315 32212ft 427kts
26-Nov-18 11:54 34.500563 -119.642605 319 32213ft 425kts
26-Nov-18 11:55 34.583465 -119.744934 319 32212ft 425kts
26-Nov-18 11:56 34.663747 -119.844260 319 32212ft 425kts
26-Nov-18 11:57 34.746662 -119.946717 318 32212ft 425kts
26-Nov-18 11:58 34.823932 -120.042711 318 32214ft 426kts
26-Nov-18 11:59 34.906932 -120.145965 318 32217ft 426kts
26-Nov-18 12:00 34.989397 -120.249240 317 32219ft 425kts
26-Nov-18 12:01 35.069154 -120.349506 317 32220ft 426kts
26-Nov-18 12:02 35.154763 -120.448855 321 32220ft 424kts
26-Nov-18 12:03 35.241901 -120.545987 320 32221ft 424kts
26-Nov-18 12:04 35.326147 -120.640190 320 32222ft 424kts
26-Nov-18 12:05 35.412900 -120.738212 320 32233ft 424kts
26-Nov-18 12:06 35.497401 -120.832185 323 32248ft 422kts
26-Nov-18 12:07 35.591306 -120.918736 325 32256ft 421kts
26-Nov-18 12:08 35.685052 -121.005724 325 32260ft 422kts
26-Nov-18 12:09 35.778681 -121.092979 324 32269ft 422kts
26-Nov-18 12:10 35.872348 -121.180186 324 32268ft 423kts
26-Nov-18 12:11 35.965957 -121.268109 324 32265ft 423kts
26-Nov-18 12:12 36.059667 -121.356473 323 32259ft 423kts
26-Nov-18 12:13 36.158403 -121.435704 328 32226ft 423kts
26-Nov-18 12:14 36.258271 -121.512939 328 32218ft 423kts
26-Nov-18 12:15 36.357015 -121.590175 328 29223ft 423kts
26-Nov-18 12:16 36.455484 -121.667730 327 26351ft 413kts
26-Nov-18 12:17 36.549002 -121.741382 326 24382ft 389kts
26-Nov-18 12:18 36.639601 -121.813159 326 21949ft 383kts
26-Nov-18 12:19 36.714255 -121.872459 328 19944ft 378kts
26-Nov-18 12:20 36.828248 -121.918463 345 17460ft 359kts
26-Nov-18 12:21 36.908297 -121.940763 346 15602ft 349kts
26-Nov-18 12:22 37.011047 -121.975098 340 14515ft 295kts
26-Nov-18 12:23 37.083744 -122.004159 341 13144ft 281kts
26-Nov-18 12:24 37.145338 -122.028435 341 11811ft 275kts
26-Nov-18 12:25 37.218073 -122.057016 342 10049ft 273kts
26-Nov-18 12:26 37.290244 -122.085358 343 8394ft 268kts
26-Nov-18 12:27 37.357735 -122.111961 343 8056ft 229kts
26-Nov-18 12:28 37.413065 -122.131816 344 6764ft 256kts
26-Nov-18 12:29 37.479847 -122.154739 346 4775ft 241kts
26-Nov-18 12:30 37.536596 -122.184258 308 3007ft 225kts
26-Nov-18 12:31 37.563951 -122.244514 298 1998ft 169kts
26-Nov-18 12:32 37.582640 -122.289075 298 1296ft 135kts
26-Nov-18 12:33 37.600130 -122.330840 302 486ft 127kts
26-Nov-18 12:34 37.615418 -122.367055 297 21ft 23kts
26-Nov-18 12:35 37.615128 -122.368646 224 21ft 0kts
26-Nov-18 12:36 37.615939 -122.372083 297 21ft 20kts
26-Nov-18 12:37 37.617814 -122.378447 228 21ft 19kts
26-Nov-18 12:38 37.612470 -122.382396 208 21ft 17kts

Navigation Log

Ident Type
Flight plan parsing failed, navigation log unavailable